| time (UTC) | temp F | wind direction | speed knots | gust knots | rain 1hr in | rain 24hr in | rain mn in | humidity % | barometer mb |
| 20260503224906 | 74 | 67 | 0.9 | 0.9 | 0.00 | 0.00 | 0.00 | 43 | 1012.7 |
| 20260503224403 | 75 | 30 | 1.7 | 1.7 | 0.00 | 0.00 | 0.00 | 41 | 1012.7 |
| 20260503223900 | 75 | 21 | 1.7 | 1.7 | 0.00 | 0.00 | 0.00 | 42 | 1012.8 |
| 20260503223358 | 74 | 9 | 0.9 | 0.9 | 0.00 | 0.00 | 0.00 | 42 | 1012.9 |
| 20260503222853 | 74 | 29 | 0.9 | 0.9 | 0.00 | 0.00 | 0.00 | 43 | 1013.1 |
| 20260503222352 | 74 | 15 | 0.0 | 0.0 | 0.00 | 0.00 | 0.00 | 43 | 1013.1 |
| 20260503221850 | 73 | 20 | 0.9 | 0.9 | 0.00 | 0.00 | 0.00 | 43 | 1013.3 |
| 20260503221349 | 73 | 27 | 0.9 | 0.9 | 0.00 | 0.00 | 0.00 | 44 | 1013.2 |
| 20260503220844 | 73 | 35 | 0.9 | 0.9 | 0.00 | 0.00 | 0.00 | 44 | 1013.5 |
| 20260503220341 | 73 | 29 | 1.7 | 1.7 | 0.00 | 0.00 | 0.00 | 44 | 1013.4 |
| 20260503215838 | 73 | 20 | 2.6 | 2.6 | 0.00 | 0.00 | 0.00 | 44 | 1013.5 |
| 20260503215335 | 72 | 33 | 1.7 | 1.7 | 0.00 | 0.00 | 0.00 | 45 | 1013.7 |
| 20260503214833 | 72 | 4 | 0.9 | 0.9 | 0.00 | 0.00 | 0.00 | 44 | 1013.5 |
| 20260503214330 | 72 | 17 | 0.0 | 0.0 | 0.00 | 0.00 | 0.00 | 45 | 1013.5 |
| 20260503213827 | 73 | 357 | 0.9 | 1.7 | 0.00 | 0.00 | 0.00 | 45 | 1013.7 |
| 20260503213325 | 72 | 30 | 1.7 | 2.6 | 0.00 | 0.00 | 0.00 | 47 | 1013.5 |
| 20260503212821 | 73 | 3 | 0.9 | 0.9 | 0.00 | 0.00 | 0.00 | 46 | 1013.8 |
| 20260503212320 | 73 | 34 | 2.6 | 2.6 | 0.00 | 0.00 | 0.00 | 46 | 1013.6 |
| 20260503211816 | 73 | 4 | 0.9 | 0.9 | 0.00 | 0.00 | 0.00 | 46 | 1013.7 |
| 20260503211313 | 73 | 45 | 1.7 | 1.7 | 0.00 | 0.00 | 0.00 | 47 | 1013.6 |
| 20260503210813 | 73 | 35 | 2.6 | 2.6 | 0.00 | 0.00 | 0.00 | 46 | 1013.7 |
| 20260503210311 | 73 | 44 | 1.7 | 1.7 | 0.00 | 0.00 | 0.00 | 46 | 1013.7 |
| 20260503205806 | 73 | 23 | 0.0 | 0.0 | 0.00 | 0.00 | 0.00 | 46 | 1013.8 |
| 20260503205304 | 72 | 23 | 0.9 | 0.9 | 0.00 | 0.00 | 0.00 | 47 | 1013.8 |
| 20260503204759 | 72 | 30 | 1.7 | 1.7 | 0.00 | 0.00 | 0.00 | 46 | 1013.9 |
| 20260503204257 | 71 | 26 | 1.7 | 1.7 | 0.00 | 0.00 | 0.00 | 47 | 1014.0 |
| 20260503203754 | 72 | 20 | 0.9 | 0.9 | 0.00 | 0.00 | 0.00 | 46 | 1014.0 |
| 20260503203251 | 72 | 349 | 1.7 | 0.9 | 0.00 | 0.00 | 0.00 | 46 | 1013.9 |
| 20260503202748 | 72 | 2 | 0.9 | 1.7 | 0.00 | 0.00 | 0.00 | 46 | 1014.0 |
| 20260503202246 | 71 | 27 | 0.9 | 0.9 | 0.00 | 0.00 | 0.00 | 46 | 1013.9 |
| 20260503201744 | 71 | 11 | 0.9 | 0.9 | 0.00 | 0.00 | 0.00 | 45 | 1013.9 |
| 20260503201241 | 71 | 10 | 1.7 | 1.7 | 0.00 | 0.00 | 0.00 | 46 | 1014.1 |
| 20260503200737 | 71 | 20 | 0.9 | 0.9 | 0.00 | 0.00 | 0.00 | 46 | 1014.4 |
| 20260503200234 | 71 | 9 | 0.9 | 0.9 | 0.00 | 0.00 | 0.00 | 45 | 1014.4 |
| 20260503195731 | 71 | 25 | 1.7 | 1.7 | 0.00 | 0.00 | 0.00 | 44 | 1014.2 |
| 20260503195228 | 71 | 42 | 1.7 | 1.7 | 0.00 | 0.00 | 0.00 | 44 | 1014.6 |
| 20260503194726 | 71 | 8 | 1.7 | 1.7 | 0.00 | 0.00 | 0.00 | 43 | 1014.5 |
| 20260503194221 | 71 | 15 | 1.7 | 1.7 | 0.00 | 0.00 | 0.00 | 43 | 1014.4 |
| 20260503193717 | 71 | 1 | 1.7 | 1.7 | 0.00 | 0.00 | 0.00 | 46 | 1014.8 |
| 20260503193213 | 71 | 26 | 0.9 | 0.9 | 0.00 | 0.00 | 0.00 | 49 | 1014.8 |
| 20260503192709 | 71 | 349 | 0.9 | 0.9 | 0.00 | 0.00 | 0.00 | 49 | 1014.9 |
| 20260503192204 | 71 | 59 | 0.9 | 0.9 | 0.00 | 0.00 | 0.00 | 49 | 1014.8 |
| 20260503191701 | 70 | 8 | 0.9 | 1.7 | 0.00 | 0.00 | 0.00 | 50 | 1015.0 |
| 20260503191158 | 70 | 30 | 1.7 | 2.6 | 0.00 | 0.00 | 0.00 | 50 | 1014.8 |
| 20260503190655 | 70 | 44 | 2.6 | 2.6 | 0.00 | 0.00 | 0.00 | 51 | 1015.0 |
| 20260503190152 | 70 | 4 | 0.9 | 0.9 | 0.00 | 0.00 | 0.00 | 50 | 1015.1 |
| 20260503185649 | 70 | 49 | 1.7 | 1.7 | 0.00 | 0.00 | 0.00 | 50 | 1015.1 |
| 20260503185144 | 70 | 27 | 0.9 | 0.9 | 0.00 | 0.00 | 0.00 | 50 | 1015.1 |
| 20260503184639 | 69 | 28 | 0.9 | 0.9 | 0.00 | 0.00 | 0.00 | 51 | 1015.1 |
| 20260503184136 | 69 | 40 | 1.7 | 0.9 | 0.00 | 0.00 | 0.00 | 52 | 1015.2 |
| 20260503183632 | 69 | 31 | 1.7 | 2.6 | 0.00 | 0.00 | 0.00 | 51 | 1015.2 |
| 20260503183130 | 69 | 40 | 1.7 | 1.7 | 0.00 | 0.00 | 0.00 | 52 | 1015.3 |
| 20260503182628 | 69 | 21 | 0.9 | 0.9 | 0.00 | 0.00 | 0.00 | 53 | 1015.3 |
| 20260503182126 | 68 | 0 | 0.9 | 0.9 | 0.00 | 0.00 | 0.00 | 53 | 1015.4 |
| 20260503181622 | 68 | 39 | 0.0 | 0.0 | 0.00 | 0.00 | 0.00 | 54 | 1015.3 |
| 20260503181119 | 68 | 20 | 1.7 | 1.7 | 0.00 | 0.00 | 0.00 | 53 | 1015.3 |
| 20260503180616 | 68 | 39 | 1.7 | 1.7 | 0.00 | 0.00 | 0.00 | 53 | 1015.4 |
| 20260503180114 | 67 | 37 | 1.7 | 1.7 | 0.00 | 0.00 | 0.00 | 54 | 1015.3 |
| 20260503175611 | 68 | 358 | 0.9 | 0.9 | 0.00 | 0.00 | 0.00 | 53 | 1015.4 |
| 20260503175108 | 68 | 21 | 0.9 | 0.9 | 0.00 | 0.00 | 0.00 | 54 | 1015.4 |
| 20260503174605 | 67 | 41 | 0.9 | 0.9 | 0.00 | 0.00 | 0.00 | 54 | 1015.7 |
| 20260503174102 | 67 | 32 | 1.7 | 1.7 | 0.00 | 0.00 | 0.00 | 54 | 1015.4 |
| 20260503173556 | 67 | 50 | 1.7 | 0.9 | 0.00 | 0.00 | 0.00 | 56 | 1015.4 |
| 20260503173053 | 66 | 43 | 0.9 | 0.9 | 0.00 | 0.00 | 0.00 | 56 | 1015.5 |
| 20260503172550 | 66 | 0 | 1.7 | 1.7 | 0.00 | 0.00 | 0.00 | 54 | 1015.8 |
| 20260503172048 | 66 | 66 | 0.9 | 1.7 | 0.00 | 0.00 | 0.00 | 57 | 1015.5 |
| 20260503171544 | 66 | 350 | 0.0 | 0.0 | 0.00 | 0.00 | 0.00 | 58 | 1015.6 |
| 20260503171042 | 66 | 37 | 0.9 | 0.9 | 0.00 | 0.00 | 0.00 | 57 | 1015.7 |
| 20260503170538 | 66 | 41 | 0.0 | 0.9 | 0.00 | 0.00 | 0.00 | 56 | 1015.6 |
| 20260503150930 | 60 | 30 | 1.7 | 1.7 | 0.00 | 0.00 | 0.00 | 66 | 1015.9 |
| 20260503150427 | 60 | 7 | 1.7 | 2.6 | 0.00 | 0.00 | 0.00 | 66 | 1015.8 |
| 20260503131320 | 56 | 30 | 0.0 | 0.0 | 0.00 | 0.00 | 0.00 | 70 | 1015.5 |
| 20260503130817 | 55 | 30 | 0.0 | 0.0 | 0.00 | 0.00 | 0.00 | 71 | 1015.4 |
| 20260503130315 | 55 | 30 | 0.0 | 0.9 | 0.00 | 0.00 | 0.00 | 73 | 1015.3 |
| 20260503110708 | 56 | 30 | 0.0 | 0.0 | 0.00 | 0.00 | 0.00 | 68 | 1015.8 |
| 20260503110206 | 56 | 30 | 0.0 | 0.0 | 0.00 | 0.00 | 0.00 | 69 | 1015.9 |
| 20260503100132 | 59 | 30 | 0.0 | 0.0 | 0.00 | 0.00 | 0.00 | 58 | 1015.6 |
| 20260503081521 | 59 | 30 | 0.0 | 0.0 | 0.00 | 0.00 | 0.00 | 58 | 1015.7 |
| 20260503081019 | 59 | 30 | 0.0 | 0.0 | 0.00 | 0.00 | 0.00 | 58 | 1015.9 |
| 20260503080515 | 59 | 30 | 0.0 | 0.0 | 0.00 | 0.00 | 0.00 | 57 | 1016.0 |
| 20260503072449 | 64 | 30 | 0.0 | 0.0 | 0.00 | 0.00 | 0.00 | 47 | 1015.5 |
| 20260503071945 | 65 | 30 | 0.0 | 0.0 | 0.00 | 0.00 | 0.00 | 44 | 1015.8 |
| 20260503071442 | 65 | 30 | 0.9 | 0.0 | 0.00 | 0.00 | 0.00 | 43 | 1015.7 |
| 20260503070938 | 64 | 30 | 0.9 | 0.9 | 0.00 | 0.00 | 0.00 | 43 | 1015.7 |
| 20260503070435 | 63 | 30 | 0.9 | 0.9 | 0.00 | 0.00 | 0.00 | 45 | 1015.7 |
| 20260503054849 | 63 | 30 | 0.0 | 0.0 | 0.00 | 0.00 | 0.00 | 48 | 1015.6 |
| 20260503054345 | 64 | 30 | 0.0 | 0.0 | 0.00 | 0.00 | 0.00 | 48 | 1015.7 |
| 20260503053843 | 64 | 30 | 0.0 | 0.0 | 0.00 | 0.00 | 0.00 | 48 | 1015.6 |
| 20260503053341 | 64 | 30 | 0.0 | 0.0 | 0.00 | 0.00 | 0.00 | 49 | 1015.7 |
| 20260503052837 | 64 | 30 | 0.0 | 0.0 | 0.00 | 0.00 | 0.00 | 48 | 1015.8 |
| 20260503052334 | 64 | 30 | 0.9 | 0.0 | 0.00 | 0.00 | 0.00 | 47 | 1015.8 |
| 20260503051830 | 64 | 30 | 0.9 | 0.9 | 0.00 | 0.00 | 0.00 | 47 | 1015.6 |
| 20260503051327 | 64 | 30 | 0.9 | 0.0 | 0.00 | 0.00 | 0.00 | 47 | 1015.8 |
| 20260503050824 | 64 | 30 | 0.9 | 0.9 | 0.00 | 0.00 | 0.00 | 47 | 1015.8 |
| 20260503050320 | 65 | 30 | 0.0 | 0.0 | 0.00 | 0.00 | 0.00 | 47 | 1015.7 |
| 20260503045818 | 65 | 29 | 0.0 | 0.0 | 0.00 | 0.00 | 0.00 | 47 | 1015.7 |
| 20260503045315 | 65 | 30 | 0.0 | 0.0 | 0.00 | 0.00 | 0.00 | 46 | 1015.8 |
| 20260503044811 | 65 | 30 | 0.0 | 0.0 | 0.00 | 0.00 | 0.00 | 46 | 1015.5 |
| 20260503044308 | 66 | 30 | 0.0 | 0.0 | 0.00 | 0.00 | 0.00 | 45 | 1015.5 |
| 20260503043806 | 66 | 25 | 0.0 | 0.0 | 0.00 | 0.00 | 0.00 | 45 | 1015.5 |
| 20260503043303 | 66 | 25 | 0.9 | 0.9 | 0.00 | 0.00 | 0.00 | 45 | 1015.4 |
| 20260503042758 | 66 | 26 | 0.0 | 0.0 | 0.00 | 0.00 | 0.00 | 45 | 1015.3 |
| 20260503042255 | 66 | 24 | 0.9 | 0.9 | 0.00 | 0.00 | 0.00 | 45 | 1015.1 |
| 20260503041751 | 65 | 21 | 0.9 | 0.9 | 0.00 | 0.00 | 0.00 | 46 | 1015.2 |
| 20260503041249 | 66 | 30 | 0.9 | 0.9 | 0.00 | 0.00 | 0.00 | 47 | 1015.0 |
| 20260503040746 | 66 | 30 | 0.9 | 0.9 | 0.00 | 0.00 | 0.00 | 46 | 1015.1 |
| 20260503040244 | 66 | 40 | 2.6 | 1.7 | 0.00 | 0.00 | 0.00 | 47 | 1015.2 |
| 20260503035740 | 65 | 41 | 0.9 | 0.9 | 0.00 | 0.00 | 0.00 | 47 | 1015.0 |
| 20260503035238 | 66 | 16 | 0.9 | 0.9 | 0.00 | 0.00 | 0.00 | 48 | 1015.0 |
| 20260503034735 | 66 | 14 | 0.9 | 0.9 | 0.00 | 0.00 | 0.00 | 47 | 1014.8 |
| 20260503034232 | 66 | 10 | 0.9 | 0.9 | 0.00 | 0.00 | 0.00 | 47 | 1014.8 |
| 20260503033730 | 66 | 57 | 0.9 | 0.9 | 0.00 | 0.00 | 0.00 | 48 | 1014.7 |
| 20260503033227 | 66 | 356 | 0.0 | 0.0 | 0.00 | 0.00 | 0.00 | 48 | 1014.8 |
| 20260503032725 | 66 | 47 | 0.9 | 0.9 | 0.00 | 0.00 | 0.00 | 48 | 1014.4 |
| 20260503032224 | 66 | 56 | 0.9 | 0.9 | 0.00 | 0.00 | 0.00 | 49 | 1014.6 |
| 20260503031720 | 66 | 44 | 0.9 | 0.9 | 0.00 | 0.00 | 0.00 | 49 | 1014.5 |
| 20260503031218 | 66 | 44 | 0.0 | 0.0 | 0.00 | 0.00 | 0.00 | 50 | 1014.7 |
| 20260503030714 | 66 | 45 | 0.0 | 0.9 | 0.00 | 0.00 | 0.00 | 49 | 1014.5 |
| 20260503030210 | 66 | 45 | 0.9 | 0.9 | 0.00 | 0.00 | 0.00 | 49 | 1014.4 |
| 20260503025707 | 66 | 60 | 0.9 | 0.9 | 0.00 | 0.00 | 0.00 | 49 | 1014.4 |
| 20260503025205 | 67 | 57 | 0.0 | 0.0 | 0.00 | 0.00 | 0.00 | 50 | 1014.4 |
| 20260503024701 | 67 | 66 | 1.7 | 1.7 | 0.00 | 0.00 | 0.00 | 50 | 1014.4 |
| 20260503024159 | 67 | 68 | 0.0 | 0.0 | 0.00 | 0.00 | 0.00 | 50 | 1014.4 |
| 20260503023656 | 67 | 26 | 0.9 | 0.9 | 0.00 | 0.00 | 0.00 | 50 | 1014.5 |
| 20260503023152 | 67 | 29 | 0.9 | 0.9 | 0.00 | 0.00 | 0.00 | 50 | 1014.3 |
| 20260503022649 | 68 | 27 | 0.9 | 1.7 | 0.00 | 0.00 | 0.00 | 50 | 1014.4 |
| 20260503022148 | 68 | 21 | 0.9 | 1.7 | 0.00 | 0.00 | 0.00 | 50 | 1014.5 |
| 20260503021645 | 68 | 27 | 1.7 | 1.7 | 0.00 | 0.00 | 0.00 | 49 | 1014.4 |
| 20260503021142 | 68 | 9 | 0.0 | 0.0 | 0.00 | 0.00 | 0.00 | 50 | 1014.3 |
| 20260503020639 | 68 | 22 | 0.9 | 0.9 | 0.00 | 0.00 | 0.00 | 50 | 1014.4 |
| 20260503020137 | 68 | 6 | 0.0 | 0.0 | 0.00 | 0.00 | 0.00 | 50 | 1014.4 |
| 20260503015633 | 68 | 28 | 1.7 | 1.7 | 0.00 | 0.00 | 0.00 | 51 | 1014.6 |
| 20260503015130 | 68 | 31 | 0.9 | 0.9 | 0.00 | 0.00 | 0.00 | 50 | 1014.5 |
| 20260503014626 | 69 | 27 | 1.7 | 1.7 | 0.00 | 0.00 | 0.00 | 51 | 1014.6 |
| 20260503014124 | 69 | 325 | 0.9 | 0.9 | 0.00 | 0.00 | 0.00 | 51 | 1014.6 |
| 20260503013621 | 69 | 19 | 0.9 | 0.9 | 0.00 | 0.00 | 0.00 | 51 | 1014.5 |
| 20260503013119 | 69 | 38 | 0.9 | 0.9 | 0.00 | 0.00 | 0.00 | 51 | 1014.7 |
| 20260503012616 | 69 | 350 | 0.9 | 0.9 | 0.00 | 0.00 | 0.00 | 51 | 1014.8 |
| 20260503012113 | 69 | 91 | 0.9 | 1.7 | 0.00 | 0.00 | 0.00 | 51 | 1014.7 |
| 20260503011609 | 69 | 30 | 0.9 | 1.7 | 0.00 | 0.00 | 0.00 | 51 | 1014.8 |
| 20260503011106 | 69 | 40 | 0.9 | 0.9 | 0.00 | 0.00 | 0.00 | 51 | 1014.7 |
| 20260503010602 | 69 | 24 | 1.7 | 1.7 | 0.00 | 0.00 | 0.00 | 51 | 1015.0 |
| 20260503010100 | 69 | 49 | 0.9 | 0.9 | 0.00 | 0.00 | 0.00 | 50 | 1014.8 |
| 20260503005557 | 69 | 22 | 1.7 | 1.7 | 0.00 | 0.00 | 0.00 | 50 | 1014.6 |
| 20260503005054 | 69 | 25 | 1.7 | 1.7 | 0.00 | 0.00 | 0.00 | 52 | 1014.6 |
| 20260503004550 | 69 | 7 | 0.9 | 0.9 | 0.00 | 0.00 | 0.00 | 51 | 1014.9 |
| 20260503004049 | 68 | 10 | 0.9 | 0.9 | 0.00 | 0.00 | 0.00 | 51 | 1014.7 |
| 20260503003545 | 68 | 345 | 3.5 | 3.5 | 0.00 | 0.00 | 0.00 | 52 | 1014.7 |
| 20260503003042 | 69 | 19 | 1.7 | 1.7 | 0.00 | 0.00 | 0.00 | 52 | 1014.9 |
| 20260503002539 | 69 | 9 | 1.7 | 1.7 | 0.00 | 0.00 | 0.00 | 52 | 1014.6 |
| 20260503002036 | 68 | 37 | 0.9 | 0.9 | 0.00 | 0.00 | 0.00 | 53 | 1015.0 |
| 20260503001532 | 68 | 34 | 0.9 | 0.0 | 0.00 | 0.00 | 0.00 | 53 | 1015.0 |
| 20260503001030 | 68 | 15 | 0.9 | 0.9 | 0.00 | 0.00 | 0.00 | 53 | 1014.9 |
| 20260503000527 | 68 | 16 | 0.9 | 0.9 | 0.00 | 0.00 | 0.00 | 53 | 1015.0 |
| 20260503000024 | 68 | 31 | 0.0 | 0.0 | 0.00 | 0.00 | 0.00 | 55 | 1014.9 |
| 20260502235520 | 68 | 43 | 0.9 | 0.0 | 0.00 | 0.00 | 0.00 | 55 | 1015.0 |
| 20260502235019 | 68 | 334 | 2.6 | 3.5 | 0.00 | 0.00 | 0.00 | 54 | 1015.1 |
| 20260502234514 | 68 | 33 | 0.9 | 0.9 | 0.00 | 0.00 | 0.00 | 55 | 1015.1 |
| 20260502234012 | 68 | 1 | 1.7 | 1.7 | 0.00 | 0.00 | 0.00 | 54 | 1015.1 |
| 20260502233512 | 68 | 26 | 1.7 | 1.7 | 0.00 | 0.00 | 0.00 | 53 | 1015.4 |
| 20260502233010 | 68 | 24 | 0.9 | 0.9 | 0.00 | 0.00 | 0.00 | 54 | 1015.2 |
| 20260502232506 | 68 | 35 | 1.7 | 1.7 | 0.00 | 0.00 | 0.00 | 53 | 1015.5 |
| 20260502232002 | 69 | 347 | 0.9 | 0.9 | 0.00 | 0.00 | 0.00 | 52 | 1015.3 |
| 20260502231500 | 69 | 39 | 0.9 | 0.9 | 0.00 | 0.00 | 0.00 | 52 | 1015.4 |
| 20260502230958 | 69 | 8 | 0.9 | 0.9 | 0.00 | 0.00 | 0.00 | 53 | 1015.7 |
| 20260502230456 | 69 | 33 | 2.6 | 2.6 | 0.00 | 0.00 | 0.00 | 53 | 1015.6 |
| 20260502225954 | 69 | 22 | 0.9 | 0.9 | 0.00 | 0.00 | 0.00 | 52 | 1015.8 |
| 20260502225449 | 69 | 26 | 2.6 | 2.6 | 0.00 | 0.00 | 0.00 | 51 | 1015.8 |